ěÝzenÝ letovÚho provozu ╚eskÚ republiky
Letiste: LKLN Aktualizace: 30.05.2020 02:57:16  UTC
 METAR LKLN 30.05. 03:00 ...
METAR LKLN 300300Z AUTO 00000KT 9999 BKN082 OVC099 09/06 Q1022=